createdAt,value
2018-07-23T00:01:09.436Z,21.67
2018-07-23T00:03:36.944Z,22.13
2018-07-23T00:06:04.516Z,20.60
2018-07-23T00:08:32.028Z,21.10
2018-07-23T00:10:59.547Z,20.93
2018-07-23T00:13:27.056Z,22.37
2018-07-23T00:15:54.572Z,21.23
2018-07-23T00:18:22.078Z,19.67
2018-07-23T00:20:49.588Z,20.97
2018-07-23T00:23:17.100Z,20.20
2018-07-23T00:25:44.646Z,21.47
2018-07-23T00:28:12.154Z,21.83
2018-07-23T00:30:39.669Z,23.70
2018-07-23T00:33:07.164Z,26.43
2018-07-23T00:35:34.672Z,26.20
2018-07-23T00:38:02.164Z,22.17
2018-07-23T00:40:29.700Z,17.27
2018-07-23T00:42:57.200Z,23.87
2018-07-23T00:45:24.716Z,23.40
2018-07-23T00:47:52.217Z,25.00
2018-07-23T00:50:19.795Z,20.87
2018-07-23T00:52:47.292Z,20.47
2018-07-23T00:55:14.803Z,21.30
2018-07-23T00:57:42.324Z,22.60
2018-07-23T01:00:09.875Z,23.30
2018-07-23T01:02:37.403Z,21.87
2018-07-23T01:05:04.936Z,22.43
2018-07-23T01:07:32.468Z,22.97
2018-07-23T01:09:59.972Z,23.37
2018-07-23T01:12:30.008Z,23.70
2018-07-23T01:14:57.536Z,23.97
2018-07-23T01:17:25.157Z,21.00
2018-07-23T01:19:53.994Z,22.07
2018-07-23T01:22:22.502Z,22.10
2018-07-23T01:24:49.984Z,21.70
2018-07-23T01:27:17.712Z,22.70
2018-07-23T01:29:45.205Z,24.17
2018-07-23T01:32:12.780Z,25.90
2018-07-23T01:34:40.271Z,21.40
2018-07-23T01:37:07.771Z,23.70
2018-07-23T01:39:35.276Z,25.83
2018-07-23T01:42:03.277Z,26.77
2018-07-23T01:44:30.764Z,24.23
2018-07-23T01:46:58.281Z,25.67
2018-07-23T01:49:25.828Z,21.30
2018-07-23T01:51:53.403Z,21.90
2018-07-23T01:54:21.484Z,23.30
2018-07-23T01:56:49.016Z,21.97
2018-07-23T01:59:16.560Z,22.57
2018-07-23T02:01:44.076Z,22.23
2018-07-23T02:04:11.567Z,23.27
2018-07-23T02:06:39.104Z,24.47
2018-07-23T02:09:08.968Z,23.93
2018-07-23T02:11:36.503Z,22.53
2018-07-23T02:14:04.083Z,22.20
2018-07-23T02:16:31.859Z,22.57
2018-07-23T02:18:59.364Z,22.17
2018-07-23T02:21:26.907Z,21.83
2018-07-23T02:23:54.624Z,23.60
2018-07-23T02:26:22.105Z,25.57
2018-07-23T04:58:04.640Z,24.93
2018-07-23T05:00:32.145Z,23.60
2018-07-23T05:02:59.680Z,26.97
2018-07-23T05:05:27.195Z,27.97
2018-07-23T05:07:54.724Z,26.40
2018-07-23T06:12:23.746Z,19.97
2018-07-23T06:28:54.586Z,15.87
2018-07-23T06:31:22.209Z,16.27
2018-07-23T06:33:49.950Z,15.70
2018-07-23T06:36:17.469Z,16.03
2018-07-23T06:38:45.001Z,15.03
2018-07-23T06:41:12.492Z,15.67
2018-07-23T06:43:40.185Z,15.70
2018-07-23T06:46:07.709Z,15.63
2018-07-23T06:48:35.274Z,15.73
2018-07-23T06:51:02.936Z,15.37
2018-07-23T06:53:30.624Z,14.63
2018-07-23T06:55:58.125Z,14.37
2018-07-23T06:58:25.672Z,13.37
2018-07-23T07:00:53.158Z,12.00
2018-07-23T07:03:21.740Z,12.90
2018-07-23T07:05:49.372Z,13.23
2018-07-23T07:08:16.884Z,12.60
2018-07-23T07:10:44.380Z,12.50
2018-07-23T07:13:11.917Z,12.07
2018-07-23T07:16:14.884Z,11.03
2018-07-23T07:18:42.495Z,10.80
2018-07-23T07:21:09.926Z,10.97
2018-07-23T07:26:08.265Z,10.40
2018-07-23T07:28:35.827Z,10.03
2018-07-23T07:31:03.379Z,10.20
2018-07-23T07:36:37.828Z,9.80
2018-07-23T07:39:07.725Z,9.17
2018-07-23T07:41:35.007Z,8.03
2018-07-23T07:44:02.298Z,8.50
2018-07-23T07:46:29.608Z,7.83
2018-07-23T07:48:56.822Z,7.87
2018-07-23T07:51:24.078Z,7.57
2018-07-23T07:53:51.363Z,7.97
2018-07-23T07:56:18.611Z,7.77
2018-07-23T07:58:46.930Z,7.23
2018-07-23T08:01:14.273Z,7.67
2018-07-23T08:03:41.582Z,7.50
2018-07-23T08:06:08.922Z,7.27
2018-07-23T08:08:36.231Z,7.57
2018-07-23T08:11:03.500Z,7.50
2018-07-23T08:13:30.797Z,7.50
2018-07-23T08:15:58.075Z,8.17
2018-07-23T08:18:25.343Z,7.33
2018-07-23T08:20:52.619Z,7.53
2018-07-23T08:23:19.893Z,6.20
2018-07-23T08:25:47.162Z,6.70
2018-07-23T08:28:14.486Z,6.77
2018-07-23T08:30:41.701Z,6.60
2018-07-23T08:33:08.920Z,6.23
2018-07-23T08:35:36.131Z,6.03
2018-07-23T08:38:03.390Z,6.17
2018-07-23T08:40:30.612Z,6.90
2018-07-23T08:42:57.887Z,5.97
2018-07-23T08:45:25.076Z,6.17
2018-07-23T08:47:52.292Z,6.97
2018-07-23T08:50:19.521Z,6.43
2018-07-23T08:52:46.783Z,6.97
2018-07-23T08:55:14.000Z,7.27
2018-07-23T08:57:41.207Z,6.87
2018-07-23T09:00:08.436Z,6.30
2018-07-23T09:02:35.676Z,6.97
2018-07-23T09:05:02.990Z,7.33
2018-07-23T09:07:30.236Z,7.77
2018-07-23T09:09:57.454Z,7.87
2018-07-23T09:12:24.699Z,7.17
2018-07-23T09:14:51.929Z,7.47
2018-07-23T09:17:19.244Z,8.27
2018-07-23T09:19:46.469Z,8.37
2018-07-23T09:22:13.886Z,8.70
2018-07-23T09:24:41.370Z,7.20
2018-07-23T09:27:08.670Z,6.90
2018-07-23T09:29:35.935Z,7.33
2018-07-23T09:32:03.285Z,7.90
2018-07-23T09:34:30.538Z,6.43
2018-07-23T09:36:57.781Z,7.30
2018-07-23T09:39:25.172Z,6.77
2018-07-23T09:41:52.435Z,7.73
2018-07-23T09:44:19.771Z,7.43
2018-07-23T09:46:46.998Z,7.60
2018-07-23T09:49:14.317Z,8.67
2018-07-23T09:51:41.678Z,7.63
2018-07-23T09:54:08.934Z,8.40
2018-07-23T09:56:36.814Z,7.70
2018-07-23T09:59:04.256Z,6.83
2018-07-23T10:01:31.465Z,7.50
2018-07-23T10:03:58.744Z,8.37
2018-07-23T10:06:25.986Z,8.63
2018-07-23T10:08:53.249Z,7.90
2018-07-23T10:11:20.560Z,7.97
2018-07-23T10:13:47.803Z,7.73
2018-07-23T10:16:15.089Z,8.13
2018-07-23T10:18:42.351Z,7.30
2018-07-23T10:21:09.656Z,7.53
2018-07-23T10:23:37.022Z,7.53
2018-07-23T10:26:04.286Z,7.03
2018-07-23T10:28:31.552Z,8.33
2018-07-23T10:30:59.104Z,8.10
2018-07-23T10:33:26.333Z,8.63
2018-07-23T10:35:53.627Z,8.10
2018-07-23T10:38:20.932Z,8.60
2018-07-23T10:40:48.163Z,7.20
2018-07-23T10:43:15.413Z,7.67
2018-07-23T10:45:42.664Z,7.53
2018-07-23T10:48:09.961Z,7.17
2018-07-23T10:50:37.238Z,7.83
2018-07-23T10:53:04.503Z,7.20
2018-07-23T10:55:32.053Z,7.60
2018-07-23T10:57:59.296Z,7.50
2018-07-23T11:00:26.535Z,8.00
2018-07-23T11:02:53.817Z,7.57
2018-07-23T11:05:21.128Z,7.20
2018-07-23T11:07:48.381Z,8.23
2018-07-23T11:10:15.672Z,8.23
2018-07-23T11:12:43.115Z,7.40
2018-07-23T11:15:10.358Z,8.23
2018-07-23T11:17:37.759Z,8.70
2018-07-23T11:20:06.915Z,8.10
2018-07-23T11:22:34.510Z,7.00
2018-07-23T11:25:38.219Z,8.80
2018-07-23T11:27:29.174Z,7.90
2018-07-23T11:29:56.463Z,8.37
2018-07-23T11:32:23.704Z,8.10
2018-07-23T11:34:51.108Z,7.30
2018-07-23T11:37:18.428Z,8.00
2018-07-23T11:39:45.798Z,8.17
2018-07-23T11:42:13.043Z,7.43
2018-07-23T11:44:40.300Z,8.30
2018-07-23T11:47:07.605Z,7.70
2018-07-23T11:49:34.811Z,7.73
2018-07-23T11:52:02.089Z,8.53
2018-07-23T11:54:29.337Z,7.90
2018-07-23T11:56:56.596Z,8.17
2018-07-23T11:59:23.833Z,8.57
2018-07-23T12:01:51.174Z,8.80
2018-07-23T12:04:18.461Z,8.13
2018-07-23T12:06:45.715Z,8.03
2018-07-23T12:09:13.016Z,8.00
2018-07-23T12:11:40.505Z,8.43
2018-07-23T12:14:07.932Z,8.37
2018-07-23T12:16:35.818Z,8.67
2018-07-23T12:19:03.184Z,8.60
2018-07-23T12:21:30.473Z,8.47
2018-07-23T12:23:57.755Z,8.97
2018-07-23T12:26:25.028Z,8.63
2018-07-23T12:28:52.280Z,7.90
2018-07-23T12:31:19.550Z,8.00
2018-07-23T12:33:46.790Z,7.90
2018-07-23T12:36:14.024Z,8.00
2018-07-23T12:38:41.260Z,7.57
2018-07-23T12:41:08.541Z,7.70
2018-07-23T12:43:35.863Z,8.40
2018-07-23T12:46:03.284Z,9.13
2018-07-23T12:48:30.590Z,8.17
2018-07-23T12:50:57.869Z,7.87
2018-07-23T12:53:25.118Z,8.20
2018-07-23T12:55:52.405Z,7.70
2018-07-23T12:58:20.240Z,7.33
2018-07-23T13:00:47.500Z,7.73
2018-07-23T13:03:14.700Z,6.80
2018-07-23T13:05:41.944Z,7.27
2018-07-23T13:08:09.358Z,7.00
2018-07-23T13:10:36.572Z,7.23
2018-07-23T13:13:03.844Z,7.40
2018-07-23T13:15:31.165Z,7.27
2018-07-23T13:17:58.388Z,7.60
2018-07-23T13:20:25.632Z,6.50
2018-07-23T13:22:52.923Z,7.40
2018-07-23T13:25:20.241Z,7.00
2018-07-23T13:27:47.514Z,6.93
2018-07-23T13:30:14.795Z,6.10
2018-07-23T13:32:43.088Z,6.53
2018-07-23T13:35:10.321Z,6.00
2018-07-23T13:37:37.534Z,6.47
2018-07-23T13:40:04.894Z,6.17
2018-07-23T13:42:32.157Z,6.63
2018-07-23T13:44:59.476Z,6.63
2018-07-23T13:47:26.778Z,6.10
2018-07-23T13:49:54.002Z,6.20
2018-07-23T13:52:21.239Z,6.03
2018-07-23T13:54:48.485Z,5.90
2018-07-23T13:57:15.735Z,5.67
2018-07-23T13:59:43.015Z,6.03
2018-07-23T14:02:10.290Z,5.80
2018-07-23T14:04:37.566Z,6.27
2018-07-23T14:07:04.914Z,6.43
2018-07-23T14:09:32.149Z,6.40
2018-07-23T14:11:59.392Z,6.33
2018-07-23T14:14:26.660Z,6.37
2018-07-23T14:16:54.163Z,5.77
2018-07-23T14:19:21.507Z,5.77
2018-07-23T14:21:48.803Z,6.03
2018-07-23T14:24:16.080Z,5.97
2018-07-23T14:26:43.464Z,6.00
2018-07-23T14:29:10.691Z,5.77
2018-07-23T14:31:37.933Z,5.53
2018-07-23T14:34:05.420Z,5.80
2018-07-23T14:36:32.706Z,5.90
2018-07-23T14:39:00.024Z,5.60
2018-07-23T14:41:27.265Z,5.93
2018-07-23T14:43:54.550Z,6.00
2018-07-23T14:46:21.801Z,5.30
2018-07-23T14:48:49.020Z,6.00
2018-07-23T14:51:16.239Z,5.60
2018-07-23T14:53:43.469Z,6.60
2018-07-23T14:56:10.710Z,5.50
2018-07-23T14:58:37.947Z,6.27
2018-07-23T15:01:05.267Z,5.50
2018-07-23T15:03:32.480Z,6.10
2018-07-23T15:05:59.723Z,5.80
2018-07-23T15:08:26.944Z,6.13
2018-07-23T15:10:54.146Z,6.23
2018-07-23T15:13:21.360Z,6.10
2018-07-23T15:15:48.625Z,5.50
2018-07-23T15:18:15.936Z,5.43
2018-07-23T15:20:43.244Z,5.03
2018-07-23T15:23:10.637Z,5.43
2018-07-23T15:25:37.851Z,5.07
2018-07-23T15:28:05.166Z,4.80
2018-07-23T15:30:32.489Z,4.73
2018-07-23T15:32:59.769Z,5.33
2018-07-23T15:35:27.094Z,5.63
2018-07-23T15:37:54.467Z,5.23
2018-07-23T15:40:21.743Z,5.10
2018-07-23T15:42:49.093Z,5.00
2018-07-23T15:45:16.447Z,4.73
2018-07-23T15:47:43.638Z,5.13
2018-07-23T15:50:10.977Z,5.10
2018-07-23T15:52:38.817Z,4.67
2018-07-23T15:55:06.228Z,4.30
2018-07-23T15:57:33.470Z,4.37
2018-07-23T16:00:00.751Z,3.93
2018-07-23T16:02:28.020Z,3.80
2018-07-23T16:04:55.276Z,4.70
2018-07-23T16:07:22.523Z,4.80
2018-07-23T16:09:49.759Z,4.13
2018-07-23T16:12:17.003Z,4.90
2018-07-23T16:14:44.236Z,4.37
2018-07-23T16:17:11.468Z,3.83
2018-07-23T16:19:38.725Z,4.30
2018-07-23T16:22:05.978Z,3.90
2018-07-23T16:24:33.220Z,4.60
2018-07-23T16:27:00.473Z,3.73
2018-07-23T16:29:27.731Z,4.10
2018-07-23T16:31:54.961Z,4.00
2018-07-23T16:34:22.174Z,4.17
2018-07-23T16:36:49.386Z,4.20
2018-07-23T16:39:16.648Z,4.17
2018-07-23T16:41:43.867Z,4.40
2018-07-23T16:44:11.102Z,4.40
2018-07-23T16:46:38.376Z,4.27
2018-07-23T16:49:05.656Z,3.97
2018-07-23T16:51:32.971Z,4.20
2018-07-23T16:54:00.628Z,4.50
2018-07-23T16:56:28.074Z,3.93
2018-07-23T16:58:55.396Z,4.13
2018-07-23T17:01:22.812Z,3.70
2018-07-23T17:03:50.069Z,3.63
2018-07-23T17:06:17.493Z,3.73
2018-07-23T17:08:44.812Z,3.80
2018-07-23T17:11:12.101Z,3.63
2018-07-23T17:13:39.356Z,3.70
2018-07-23T17:16:06.734Z,3.63
2018-07-23T17:18:34.026Z,3.73
2018-07-23T17:21:01.563Z,3.83
2018-07-23T17:23:28.876Z,3.43
2018-07-23T17:25:56.262Z,3.93
2018-07-23T17:28:23.535Z,4.10
2018-07-23T17:30:50.834Z,3.63
2018-07-23T17:33:18.083Z,3.60
2018-07-23T17:35:45.355Z,3.40
2018-07-23T17:38:12.686Z,3.90
2018-07-23T17:40:39.963Z,3.70
2018-07-23T17:43:07.236Z,3.57
2018-07-23T17:45:34.537Z,3.70
2018-07-23T17:48:01.858Z,3.00
2018-07-23T17:50:29.228Z,3.50
2018-07-23T17:52:56.521Z,3.20
2018-07-23T17:55:23.805Z,3.50
2018-07-23T17:57:51.139Z,3.77
2018-07-23T18:00:18.598Z,3.40
2018-07-23T18:02:45.923Z,4.07
2018-07-23T18:05:13.310Z,3.67
2018-07-23T18:07:41.579Z,3.70
2018-07-23T18:10:08.864Z,3.60
2018-07-23T18:12:36.085Z,3.80
2018-07-23T18:15:03.801Z,3.53
2018-07-23T18:17:31.038Z,3.90
2018-07-23T18:19:58.316Z,3.70
2018-07-23T18:22:25.540Z,3.80
2018-07-23T18:24:52.772Z,3.97
2018-07-23T18:27:20.057Z,4.17
2018-07-23T18:29:47.299Z,3.77
2018-07-23T18:32:14.526Z,4.30
2018-07-23T18:34:41.765Z,4.03
2018-07-23T18:37:09.035Z,3.80
2018-07-23T18:39:36.176Z,4.13
2018-07-23T18:42:03.410Z,4.10
2018-07-23T18:44:30.617Z,4.17
2018-07-23T18:46:57.835Z,4.50
2018-07-23T18:49:38.235Z,4.50
2018-07-23T18:52:05.600Z,4.30
2018-07-23T18:54:33.404Z,4.27
2018-07-23T18:57:01.831Z,4.57
2018-07-23T18:59:29.106Z,4.80
2018-07-23T19:01:57.084Z,4.70
2018-07-23T19:04:24.335Z,4.80
2018-07-23T19:06:51.560Z,5.40
2018-07-23T19:09:21.965Z,5.30
2018-07-23T19:11:50.376Z,5.10
2018-07-23T19:14:17.915Z,4.77
2018-07-23T19:16:45.576Z,5.07
2018-07-23T19:19:12.804Z,4.77
2018-07-23T19:21:40.091Z,5.40
2018-07-23T19:24:07.351Z,5.70
2018-07-23T19:26:34.612Z,5.47
2018-07-23T19:29:01.904Z,5.50
2018-07-23T19:31:29.503Z,4.93
2018-07-23T19:33:57.661Z,5.10
2018-07-23T19:36:25.190Z,5.13
2018-07-23T19:38:52.895Z,5.30
2018-07-23T19:41:20.177Z,5.13
2018-07-23T19:43:47.371Z,5.17
2018-07-23T19:46:14.605Z,5.47
2018-07-23T19:48:41.850Z,5.87
2018-07-23T19:51:10.022Z,6.10
2018-07-23T19:53:37.633Z,5.70
2018-07-23T19:56:05.024Z,5.50
2018-07-23T19:58:32.220Z,5.13
2018-07-23T20:00:59.443Z,4.90
2018-07-23T20:03:26.638Z,5.23
2018-07-23T20:05:53.860Z,5.10
2018-07-23T20:08:21.064Z,4.83
2018-07-23T20:10:48.263Z,5.43
2018-07-23T20:13:15.470Z,5.20
2018-07-23T20:15:42.667Z,5.30
2018-07-23T20:18:09.868Z,5.13
2018-07-23T20:20:37.073Z,5.33
2018-07-23T20:23:04.315Z,5.00
2018-07-23T20:25:31.540Z,5.60
2018-07-23T20:27:58.777Z,5.23
2018-07-23T20:30:26.025Z,5.77
2018-07-23T20:32:53.267Z,5.67
2018-07-23T20:35:20.559Z,5.73
2018-07-23T20:37:47.837Z,6.57
2018-07-23T20:40:15.005Z,6.33
2018-07-23T20:42:42.233Z,6.23
2018-07-23T20:45:09.509Z,6.13
2018-07-23T20:47:36.745Z,5.10
2018-07-23T20:50:04.092Z,6.43
2018-07-23T20:52:31.345Z,6.07
2018-07-23T20:54:58.568Z,7.07
2018-07-23T20:57:25.789Z,6.43
2018-07-23T20:59:53.004Z,5.67
2018-07-23T21:02:20.211Z,5.67
2018-07-23T21:04:47.441Z,6.43
2018-07-23T21:07:14.645Z,7.00
2018-07-23T21:09:41.845Z,7.93
2018-07-23T21:12:09.075Z,7.50
2018-07-23T21:14:36.308Z,6.93
2018-07-23T21:17:03.562Z,6.90
2018-07-23T21:19:30.765Z,6.93
2018-07-23T21:21:58.020Z,7.10
2018-07-23T21:24:25.215Z,6.30
2018-07-23T21:26:52.424Z,7.07
2018-07-23T21:29:19.661Z,6.77
2018-07-23T21:31:46.968Z,7.73
2018-07-23T21:34:14.167Z,7.97
2018-07-23T21:36:41.449Z,7.70
2018-07-23T21:39:09.550Z,7.80
2018-07-23T21:41:36.835Z,7.40
2018-07-23T21:44:04.011Z,7.67
2018-07-23T21:46:31.511Z,7.80
2018-07-23T21:48:58.735Z,7.63
2018-07-23T21:51:25.950Z,7.17
2018-07-23T21:53:53.184Z,7.80
2018-07-23T21:56:20.412Z,7.10
2018-07-23T22:02:19.063Z,7.87
2018-07-23T22:04:46.270Z,7.67
2018-07-23T22:07:13.496Z,7.80
2018-07-23T22:09:40.695Z,7.57
2018-07-23T22:12:07.920Z,8.13
2018-07-23T22:14:35.117Z,7.80
2018-07-23T22:17:02.380Z,8.47
2018-07-23T22:19:29.580Z,7.93
2018-07-23T22:21:56.807Z,7.80
2018-07-23T22:24:24.046Z,7.47
2018-07-23T22:26:51.258Z,7.43
2018-07-23T22:29:18.503Z,7.50
2018-07-23T22:31:45.715Z,7.57
2018-07-23T22:34:12.936Z,8.50
2018-07-23T22:36:40.146Z,8.40
2018-07-23T22:39:08.916Z,8.13
2018-07-23T22:41:36.164Z,7.40
2018-07-23T22:44:03.453Z,7.33
2018-07-23T22:46:30.680Z,8.00
2018-07-23T22:48:57.900Z,7.47
2018-07-23T22:51:25.111Z,8.70
2018-07-23T22:53:52.354Z,7.80
2018-07-23T22:56:19.583Z,7.80
2018-07-23T22:58:46.791Z,8.00
2018-07-23T23:01:14.021Z,8.30
2018-07-23T23:03:41.248Z,8.63
2018-07-23T23:06:08.453Z,8.70
2018-07-23T23:08:35.667Z,7.77
2018-07-23T23:11:02.861Z,8.77
2018-07-23T23:13:30.113Z,8.93
2018-07-23T23:15:57.331Z,8.73
2018-07-23T23:18:24.550Z,9.33
2018-07-23T23:20:51.778Z,9.00
2018-07-23T23:23:19.003Z,8.63
2018-07-23T23:25:46.204Z,8.97
2018-07-23T23:28:13.420Z,8.40
2018-07-23T23:30:40.626Z,8.67
2018-07-23T23:33:07.848Z,9.03
2018-07-23T23:35:35.040Z,8.73
2018-07-23T23:38:02.279Z,8.20
2018-07-23T23:40:29.481Z,8.93
2018-07-23T23:42:56.679Z,8.70
2018-07-23T23:45:23.883Z,8.27
2018-07-23T23:47:51.100Z,9.17
2018-07-23T23:50:18.312Z,9.40
2018-07-23T23:52:45.520Z,9.63
2018-07-23T23:55:13.006Z,8.50
2018-07-23T23:57:40.228Z,9.27
